Time;durP1;ratioP1;P1;durP2;ratioP2;P2;SDS_P1;SDS_P2;PMS_P1;PMS_P2;Temp;Humidity;BMP_temperature;BMP_pressure;BME280_temperature;BME280_humidity;BME280_pressure;Samples;Min_cycle;Max_cycle;Signal;HPM_P1;HPM_P2
2022/05/12 00:00:36;;;;;;;2.95;1.00;;;14.90;70.10;;;;;;5039693;28;20067;-71
2022/05/12 00:03:04;;;;;;;2.90;0.90;;;14.90;70.20;;;;;;5049997;28;20009;-73
2022/05/12 00:05:30;;;;;;;5.45;1.17;;;14.90;70.00;;;;;;5043297;28;20027;-72
2022/05/12 00:07:55;;;;;;;2.67;1.10;;;14.80;70.00;;;;;;5047578;28;20379;-70
2022/05/12 00:10:23;;;;;;;4.00;1.00;;;14.80;69.90;;;;;;5043458;28;20111;-70
2022/05/12 00:12:50;;;;;;;1.95;1.00;;;14.80;69.90;;;;;;5034558;28;20102;-70
2022/05/12 00:15:22;;;;;;;3.45;1.00;;;14.90;69.70;;;;;;5038238;28;20074;-71
2022/05/12 00:17:48;;;;;;;3.53;1.00;;;14.90;69.70;;;;;;5040085;28;20028;-72
2022/05/12 00:20:17;;;;;;;3.15;1.13;;;14.90;69.50;;;;;;5040536;28;20025;-73
2022/05/12 00:22:43;;;;;;;2.42;0.90;;;14.90;69.50;;;;;;5039967;28;20052;-72
2022/05/12 00:25:14;;;;;;;3.90;1.20;;;14.90;69.30;;;;;;5041661;28;20410;-71
2022/05/12 00:27:40;;;;;;;2.20;0.93;;;14.90;69.20;;;;;;5041257;28;20017;-71
2022/05/12 00:30:09;;;;;;;2.03;0.82;;;14.90;69.10;;;;;;5041974;28;20029;-71
2022/05/12 00:32:38;;;;;;;3.50;1.05;;;14.90;69.00;;;;;;5044420;28;20555;-70
2022/05/12 00:35:07;;;;;;;4.00;1.00;;;14.90;69.00;;;;;;5045266;28;20039;-70
2022/05/12 00:37:32;;;;;;;2.92;1.10;;;14.80;68.80;;;;;;5036412;28;20420;-70
2022/05/12 00:39:58;;;;;;;3.83;1.10;;;14.80;68.90;;;;;;5051521;28;20242;-70
2022/05/12 00:42:23;;;;;;;4.32;1.20;;;14.80;68.80;;;;;;5040765;28;20375;-70
2022/05/12 00:44:49;;;;;;;3.60;1.00;;;14.70;69.00;;;;;;5038753;28;20036;-70
2022/05/12 00:47:14;;;;;;;3.45;1.00;;;14.70;69.10;;;;;;5044043;28;20623;-70
2022/05/12 00:49:41;;;;;;;3.78;1.15;;;14.60;69.20;;;;;;5053902;28;20029;-72
2022/05/12 00:52:09;;;;;;;3.08;1.00;;;14.60;69.10;;;;;;5036616;28;20018;-71
2022/05/12 00:54:45;;;;;;;3.25;1.00;;;14.60;69.10;;;;;;5049211;28;20448;-71
2022/05/12 00:57:15;;;;;;;2.65;0.95;;;14.60;69.10;;;;;;5040060;28;20057;-70
2022/05/12 00:59:41;;;;;;;2.65;0.98;;;14.60;69.00;;;;;;5043467;28;20167;-70
2022/05/12 01:02:11;;;;;;;1.90;0.90;;;14.60;68.80;;;;;;5048818;28;20108;-71
2022/05/12 01:04:38;;;;;;;4.53;1.20;;;14.60;68.80;;;;;;5034822;28;20029;-71
2022/05/12 01:07:04;;;;;;;2.63;0.95;;;14.60;68.90;;;;;;5042779;28;20043;-72
2022/05/12 01:09:31;;;;;;;2.92;1.00;;;14.60;69.50;;;;;;5033995;28;20035;-72
2022/05/12 01:11:56;;;;;;;2.63;0.80;;;14.50;68.70;;;;;;5034428;28;20511;-72
2022/05/12 01:14:22;;;;;;;2.13;0.80;;;14.50;68.70;;;;;;5039638;28;20030;-72
2022/05/12 01:16:52;;;;;;;3.72;1.00;;;14.50;68.70;;;;;;5045634;28;20487;-71
2022/05/12 01:19:22;;;;;;;3.00;1.02;;;14.50;68.90;;;;;;5035552;28;20037;-72
2022/05/12 01:21:48;;;;;;;2.55;1.00;;;14.40;68.80;;;;;;5042499;28;20102;-71
2022/05/12 01:24:16;;;;;;;2.03;0.80;;;14.40;68.90;;;;;;5047013;28;20487;-71
2022/05/12 01:26:42;;;;;;;4.00;0.95;;;14.40;68.90;;;;;;5041135;28;20059;-72
2022/05/12 01:29:08;;;;;;;4.13;1.13;;;14.40;68.90;;;;;;5048802;28;20108;-72
2022/05/12 01:31:35;;;;;;;2.88;1.00;;;14.30;68.90;;;;;;5028048;28;20395;-73
2022/05/12 01:34:03;;;;;;;4.03;1.10;;;14.30;69.00;;;;;;5045807;28;20036;-71
2022/05/12 01:36:28;;;;;;;3.22;1.05;;;14.30;68.90;;;;;;5044720;28;20025;-72
2022/05/12 01:38:54;;;;;;;3.38;1.10;;;14.30;68.90;;;;;;5050361;28;20514;-72
2022/05/12 01:41:20;;;;;;;1.92;0.85;;;14.30;68.90;;;;;;5044808;28;20070;-72
2022/05/12 01:43:46;;;;;;;4.70;1.00;;;14.20;68.80;;;;;;5046873;28;20484;-69
2022/05/12 01:46:12;;;;;;;4.70;1.20;;;14.20;69.00;;;;;;5048271;28;20110;-70
2022/05/12 01:48:38;;;;;;;3.33;1.30;;;14.20;69.00;;;;;;5047214;28;20086;-69
2022/05/12 01:51:04;;;;;;;3.28;1.20;;;14.10;69.20;;;;;;5049049;28;20021;-70
2022/05/12 01:53:30;;;;;;;2.88;1.23;;;14.10;69.40;;;;;;5043255;28;20025;-69
2022/05/12 01:55:57;;;;;;;2.95;1.30;;;14.10;69.40;;;;;;5048448;28;20060;-69
2022/05/12 01:58:23;;;;;;;3.47;1.27;;;14.00;69.30;;;;;;5050149;28;20025;-70
2022/05/12 02:00:49;;;;;;;3.70;1.40;;;14.00;69.30;;;;;;5042216;28;20021;-71
2022/05/12 02:03:14;;;;;;;2.88;1.20;;;14.00;69.40;;;;;;5039511;28;20039;-70
2022/05/12 02:05:41;;;;;;;3.25;1.17;;;13.90;69.60;;;;;;5044666;28;20396;-71
2022/05/12 02:08:08;;;;;;;4.53;1.42;;;13.90;69.60;;;;;;5041847;28;20068;-70
2022/05/12 02:10:38;;;;;;;4.15;1.55;;;13.90;69.60;;;;;;5044440;28;20021;-70
2022/05/12 02:13:07;;;;;;;7.00;3.17;;;13.90;69.60;;;;;;5038986;28;20025;-71
2022/05/12 02:15:34;;;;;;;5.35;2.05;;;13.90;69.70;;;;;;5039991;28;20021;-69
2022/05/12 02:18:00;;;;;;;4.93;1.50;;;13.80;69.60;;;;;;5057377;28;20033;-72
2022/05/12 02:20:26;;;;;;;3.08;1.45;;;13.80;69.70;;;;;;5037669;28;20033;-72
2022/05/12 02:22:51;;;;;;;2.40;1.05;;;13.80;69.70;;;;;;5045959;28;20033;-70
2022/05/12 02:25:18;;;;;;;3.58;1.40;;;13.80;69.60;;;;;;5041237;28;20739;-70
2022/05/12 02:27:45;;;;;;;3.10;1.23;;;13.80;69.80;;;;;;5043259;28;20033;-69
2022/05/12 02:30:14;;;;;;;3.63;1.20;;;13.70;69.90;;;;;;5049937;28;20021;-70
2022/05/12 02:32:40;;;;;;;2.17;1.10;;;13.70;69.90;;;;;;5042294;28;20037;-72
2022/05/12 02:35:06;;;;;;;4.30;1.40;;;13.80;69.90;;;;;;5043956;28;20036;-70
2022/05/12 02:37:32;;;;;;;4.95;1.20;;;13.80;69.80;;;;;;5047326;28;20506;-70
2022/05/12 02:39:58;;;;;;;4.78;1.50;;;13.70;69.90;;;;;;5040425;28;20028;-70
2022/05/12 02:42:24;;;;;;;2.13;1.20;;;13.70;69.90;;;;;;5043351;28;20036;-71
2022/05/12 02:44:49;;;;;;;1.90;1.23;;;13.70;69.90;;;;;;5041128;28;20093;-70
2022/05/12 02:47:15;;;;;;;3.22;1.23;;;13.70;70.10;;;;;;5040444;28;20029;-75
2022/05/12 02:49:40;;;;;;;4.30;1.50;;;13.70;70.20;;;;;;5044841;28;20029;-70
2022/05/12 02:52:07;;;;;;;5.45;2.60;;;13.70;70.20;;;;;;5054354;28;20028;-71
2022/05/12 02:54:34;;;;;;;4.25;1.90;;;13.70;70.30;;;;;;5046197;28;20033;-70
2022/05/12 02:56:59;;;;;;;4.65;1.60;;;13.80;70.50;;;;;;5045167;28;20032;-71
2022/05/12 02:59:25;;;;;;;4.32;1.70;;;13.80;70.50;;;;;;5048432;28;20395;-73
2022/05/12 03:01:50;;;;;;;6.68;1.70;;;13.80;70.50;;;;;;5048053;28;20033;-70
2022/05/12 03:04:16;;;;;;;3.15;1.38;;;13.70;70.40;;;;;;5049475;28;20460;-70
2022/05/12 03:06:43;;;;;;;5.30;1.73;;;13.70;70.50;;;;;;5042210;28;20021;-70
2022/05/12 03:09:09;;;;;;;3.63;1.65;;;13.70;70.50;;;;;;5051217;28;20044;-70
2022/05/12 03:11:34;;;;;;;3.97;1.88;;;13.70;70.60;;;;;;5048195;28;20068;-70
2022/05/12 03:14:00;;;;;;;3.85;1.77;;;13.60;70.70;;;;;;5053383;28;20073;-72
2022/05/12 03:16:25;;;;;;;5.20;1.92;;;13.60;70.80;;;;;;5042772;28;20080;-69
2022/05/12 03:18:53;;;;;;;4.28;2.00;;;13.50;70.80;;;;;;5054051;28;20028;-68
2022/05/12 03:21:20;;;;;;;4.63;2.20;;;13.50;71.20;;;;;;5037280;28;20173;-68
2022/05/12 03:23:47;;;;;;;5.03;2.47;;;13.50;71.10;;;;;;5057785;28;20037;-71
2022/05/12 03:26:13;;;;;;;5.78;2.60;;;13.50;71.30;;;;;;5046875;28;20025;-68
2022/05/12 03:28:40;;;;;;;3.65;2.17;;;13.50;71.40;;;;;;5035658;28;20022;-71
2022/05/12 03:31:07;;;;;;;4.20;2.22;;;13.50;71.50;;;;;;5050724;28;20040;-69
2022/05/12 03:33:34;;;;;;;7.47;3.22;;;13.50;71.70;;;;;;5035796;28;20510;-71
2022/05/12 03:36:00;;;;;;;8.85;4.32;;;13.50;72.10;;;;;;5041873;28;20476;-71
2022/05/12 03:38:26;;;;;;;6.35;3.35;;;13.40;72.50;;;;;;5038935;28;20083;-72
2022/05/12 03:40:52;;;;;;;5.03;3.35;;;13.40;72.50;;;;;;5047085;28;20028;-71
2022/05/12 03:46:03;;;;;;;3.80;2.38;;;13.40;72.60;;;;;;5037858;28;20094;-71
2022/05/12 03:48:29;;;;;;;4.97;2.28;;;13.40;72.70;;;;;;5038036;28;20095;-71
2022/05/12 03:50:55;;;;;;;5.07;2.75;;;13.40;72.60;;;;;;5039761;28;20904;-71
2022/05/12 03:53:21;;;;;;;4.40;2.83;;;13.40;72.70;;;;;;5041816;28;20068;-72
2022/05/12 03:55:48;;;;;;;5.03;2.30;;;13.30;72.80;;;;;;5039290;28;20060;-71
2022/05/12 03:58:13;;;;;;;3.35;2.40;;;13.30;72.80;;;;;;5046866;28;20027;-72
2022/05/12 04:00:39;;;;;;;4.22;2.28;;;13.30;72.80;;;;;;5034355;28;20037;-71
2022/05/12 04:03:04;;;;;;;3.78;2.20;;;13.30;72.80;;;;;;5046764;28;20107;-73
2022/05/12 04:05:31;;;;;;;4.80;2.80;;;13.30;72.90;;;;;;5033762;28;20091;-72
2022/05/12 04:07:58;;;;;;;4.38;2.50;;;13.30;73.00;;;;;;5039592;28;20020;-71
2022/05/12 04:10:25;;;;;;;5.03;2.55;;;13.40;73.30;;;;;;5040542;28;20041;-70
2022/05/12 04:12:51;;;;;;;5.60;2.33;;;13.40;73.20;;;;;;5049058;28;20025;-70
2022/05/12 04:15:17;;;;;;;4.32;2.22;;;13.40;73.10;;;;;;5039519;28;20388;-70
2022/05/12 04:17:44;;;;;;;4.60;2.30;;;13.40;73.10;;;;;;5043293;28;20104;-72
2022/05/12 04:20:12;;;;;;;4.18;2.30;;;13.40;73.20;;;;;;5044105;28;20025;-71
2022/05/12 04:22:40;;;;;;;4.43;2.35;;;13.50;73.00;;;;;;5041622;28;20435;-71
2022/05/12 04:25:06;;;;;;;3.65;2.55;;;13.60;72.90;;;;;;5045938;28;20383;-73
2022/05/12 04:27:35;;;;;;;5.63;2.40;;;13.60;73.00;;;;;;5042415;28;20025;-70
2022/05/12 04:30:01;;;;;;;3.80;2.20;;;13.70;73.00;;;;;;5054490;28;20025;-70
2022/05/12 04:32:26;;;;;;;5.28;2.70;;;13.60;72.90;;;;;;5037348;28;20028;-70
2022/05/12 04:35:11;;;;;;;4.15;2.30;;;13.60;72.80;;;;;;5042167;28;20044;-73
2022/05/12 04:37:37;;;;;;;3.30;2.20;;;13.60;72.70;;;;;;5056495;28;20510;-71
2022/05/12 04:40:14;;;;;;;4.47;2.50;;;13.70;72.70;;;;;;5039617;28;20124;-70
2022/05/12 04:42:40;;;;;;;3.45;2.20;;;13.70;72.80;;;;;;5047336;28;20021;-69
2022/05/12 04:45:08;;;;;;;8.07;2.40;;;13.70;72.60;;;;;;5034599;28;20024;-69
2022/05/12 04:47:34;;;;;;;2.85;2.00;;;13.80;72.70;;;;;;5038981;28;20389;-69
2022/05/12 04:50:00;;;;;;;3.72;2.30;;;13.80;72.60;;;;;;5043142;28;20056;-68
2022/05/12 04:52:27;;;;;;;4.05;2.40;;;13.80;72.40;;;;;;5035213;28;20119;-69
2022/05/12 04:54:54;;;;;;;3.05;2.00;;;13.90;72.40;;;;;;5038802;28;20040;-69
2022/05/12 04:57:20;;;;;;;3.80;2.22;;;13.90;72.40;;;;;;5042148;28;20087;-70
2022/05/12 04:59:46;;;;;;;3.65;2.03;;;13.90;72.30;;;;;;5049124;28;20115;-70
2022/05/12 05:02:12;;;;;;;5.47;2.30;;;14.00;72.20;;;;;;5039139;28;20021;-70
2022/05/12 05:04:37;;;;;;;3.35;2.30;;;14.00;72.20;;;;;;5043157;28;20017;-71
2022/05/12 05:07:03;;;;;;;3.33;2.13;;;14.00;72.00;;;;;;5042476;28;20056;-72
2022/05/12 05:09:29;;;;;;;4.88;2.30;;;14.10;72.00;;;;;;5039541;28;20120;-71
2022/05/12 05:11:54;;;;;;;4.28;2.53;;;14.20;72.00;;;;;;5043685;28;20390;-68
2022/05/12 05:14:20;;;;;;;4.40;2.25;;;14.20;71.90;;;;;;5053209;28;20036;-69
2022/05/12 05:16:46;;;;;;;3.90;2.33;;;14.40;72.00;;;;;;5039754;28;20117;-71
2022/05/12 05:19:12;;;;;;;5.68;2.20;;;15.50;70.70;;;;;;5039669;28;20053;-71
2022/05/12 05:21:37;;;;;;;3.67;2.35;;;16.60;67.70;;;;;;5036096;28;20053;-70
2022/05/12 05:24:03;;;;;;;4.63;2.20;;;17.60;64.90;;;;;;5044248;28;20033;-70
2022/05/12 05:26:29;;;;;;;2.80;2.00;;;18.60;62.20;;;;;;5040822;28;20029;-69
2022/05/12 05:28:55;;;;;;;4.05;2.40;;;19.50;59.90;;;;;;5047800;28;20437;-70
2022/05/12 05:31:20;;;;;;;4.72;2.40;;;20.20;58.00;;;;;;5041593;28;20120;-70
2022/05/12 05:33:46;;;;;;;4.10;2.08;;;20.80;56.40;;;;;;5043963;28;20116;-69
2022/05/12 05:36:11;;;;;;;3.17;1.95;;;21.30;55.30;;;;;;5045038;28;20098;-69
2022/05/12 05:38:38;;;;;;;4.45;2.30;;;21.80;54.10;;;;;;5046658;28;20021;-69
2022/05/12 05:41:03;;;;;;;3.58;2.38;;;22.20;52.90;;;;;;5049050;28;20108;-68
2022/05/12 05:43:29;;;;;;;3.92;2.10;;;22.50;52.10;;;;;;5048304;28;20108;-68
2022/05/12 05:45:55;;;;;;;4.25;2.22;;;23.10;51.30;;;;;;5043926;28;20033;-70
2022/05/12 05:48:21;;;;;;;2.65;1.80;;;23.30;50.30;;;;;;5037975;28;20057;-68
2022/05/12 05:53:36;;;;;;;5.40;2.20;;;23.90;48.80;;;;;;5039408;28;20024;-70
2022/05/12 05:56:03;;;;;;;3.00;1.58;;;24.20;48.00;;;;;;5044021;28;20018;-71
2022/05/12 05:58:29;;;;;;;2.30;1.50;;;24.40;47.60;;;;;;5036555;28;20030;-69
2022/05/12 06:00:55;;;;;;;3.47;1.65;;;24.80;47.10;;;;;;5043977;28;20025;-70
2022/05/12 06:03:21;;;;;;;3.00;1.70;;;25.00;46.40;;;;;;5043192;28;20024;-69
2022/05/12 06:05:47;;;;;;;3.83;2.20;;;25.20;45.80;;;;;;5042140;28;20025;-68
2022/05/12 06:08:16;;;;;;;2.92;1.52;;;25.30;45.30;;;;;;5045311;28;20491;-70
2022/05/12 06:10:43;;;;;;;3.97;2.00;;;25.40;44.90;;;;;;5052814;28;20029;-70
2022/05/12 06:13:09;;;;;;;3.28;1.80;;;25.60;44.60;;;;;;5062506;28;20123;-70
2022/05/12 06:15:35;;;;;;;4.88;2.20;;;25.70;44.30;;;;;;5071718;28;20099;-70
2022/05/12 06:18:10;;;;;;;3.00;1.60;;;25.90;44.10;;;;;;5062906;28;20040;-70
2022/05/12 06:20:37;;;;;;;3.85;1.95;;;25.60;43.90;;;;;;5045926;28;20037;-69
2022/05/12 06:23:02;;;;;;;3.25;1.83;;;25.30;44.10;;;;;;5036325;28;20065;-70
2022/05/12 06:25:28;;;;;;;4.55;2.28;;;25.30;44.20;;;;;;5038838;28;20101;-69
2022/05/12 06:27:54;;;;;;;3.83;1.85;;;25.50;44.60;;;;;;5054709;28;21186;-69
2022/05/12 06:30:20;;;;;;;5.15;2.22;;;25.60;44.50;;;;;;5042332;28;20033;-69
2022/05/12 06:32:46;;;;;;;4.13;2.05;;;25.50;44.80;;;;;;5043307;28;20739;-69
2022/05/12 06:35:16;;;;;;;5.30;2.40;;;25.30;45.40;;;;;;5047829;28;20041;-69
2022/05/12 06:37:42;;;;;;;4.70;2.10;;;25.00;46.00;;;;;;5051077;28;20078;-70
2022/05/12 06:40:08;;;;;;;4.05;1.83;;;24.60;46.60;;;;;;5049175;28;20049;-69
2022/05/12 06:42:35;;;;;;;2.88;1.90;;;24.20;47.40;;;;;;5047267;28;20028;-70
2022/05/12 06:45:01;;;;;;;4.05;2.28;;;23.70;48.30;;;;;;5051280;28;20025;-69
2022/05/12 06:47:28;;;;;;;6.13;2.45;;;23.20;49.10;;;;;;5045542;28;20475;-71
2022/05/12 06:49:53;;;;;;;4.43;2.05;;;23.10;49.70;;;;;;5052638;28;20053;-70
2022/05/12 06:52:19;;;;;;;4.88;2.60;;;22.80;50.30;;;;;;5046815;28;20121;-69
2022/05/12 06:54:45;;;;;;;4.05;1.88;;;22.40;50.60;;;;;;5051058;28;20056;-69
2022/05/12 06:57:18;;;;;;;5.68;2.47;;;22.10;51.30;;;;;;5047441;28;20495;-69
2022/05/12 06:59:43;;;;;;;6.78;2.60;;;21.80;51.80;;;;;;5046403;28;20120;-68
2022/05/12 07:02:09;;;;;;;4.47;2.20;;;21.60;52.20;;;;;;5049415;28;20128;-68
2022/05/12 07:04:37;;;;;;;5.57;2.15;;;21.70;52.40;;;;;;5049664;28;20025;-70
2022/05/12 07:07:02;;;;;;;3.83;2.10;;;22.00;52.10;;;;;;5049022;28;20096;-69
2022/05/12 07:09:30;;;;;;;7.68;3.17;;;22.40;51.50;;;;;;5049692;28;20125;-68
2022/05/12 07:11:55;;;;;;;4.38;2.25;;;22.10;50.60;;;;;;5050744;28;20028;-68
2022/05/12 07:14:21;;;;;;;5.38;2.55;;;22.20;51.20;;;;;;5046136;28;20379;-71
2022/05/12 07:16:47;;;;;;;5.35;2.40;;;22.00;51.00;;;;;;5044548;28;20075;-69
2022/05/12 07:19:15;;;;;;;5.20;2.40;;;21.90;51.30;;;;;;5043183;28;20016;-71
2022/05/12 07:27:14;;;;;;;6.75;2.47;;;21.10;52.10;;;;;;5048690;28;20032;-69
2022/05/12 07:29:39;;;;;;;5.20;2.20;;;21.00;52.30;;;;;;5050859;28;20029;-70
2022/05/12 07:32:06;;;;;;;2.83;1.67;;;20.70;52.30;;;;;;5048263;28;20503;-69
2022/05/12 07:34:31;;;;;;;3.53;1.67;;;20.60;52.60;;;;;;5047252;28;20043;-70
2022/05/12 07:36:57;;;;;;;3.78;2.03;;;20.60;52.80;;;;;;5046940;28;20117;-69
2022/05/12 07:39:29;;;;;;;5.30;1.80;;;20.60;52.20;;;;;;5047394;28;20098;-69
2022/05/12 07:41:58;;;;;;;;;;;20.40;52.20;;;;;;5050845;28;20029;-69
2022/05/12 07:44:31;;;;;;;4.40;1.90;;;20.40;52.40;;;;;;5046295;28;20338;-70
2022/05/12 07:47:00;;;;;;;3.10;1.58;;;20.50;52.30;;;;;;5051229;28;20459;-69
2022/05/12 07:49:28;;;;;;;4.85;1.88;;;20.70;52.20;;;;;;5049940;28;20033;-68
2022/05/12 07:51:54;;;;;;;5.55;1.95;;;20.70;51.80;;;;;;5050415;28;20024;-68
2022/05/12 07:54:19;;;;;;;4.25;1.80;;;20.80;51.80;;;;;;5044558;28;20044;-69
2022/05/12 07:56:45;;;;;;;4.00;1.45;;;20.80;51.40;;;;;;5039630;28;20029;-70
2022/05/12 07:59:10;;;;;;;5.55;2.20;;;20.90;51.50;;;;;;5043098;28;20021;-69
2022/05/12 08:01:38;;;;;;;4.55;2.00;;;20.90;51.20;;;;;;5047095;28;21298;-68
2022/05/12 08:04:03;;;;;;;5.32;2.00;;;20.90;51.40;;;;;;5049036;28;20029;-69
2022/05/12 08:06:29;;;;;;;6.25;2.40;;;20.80;50.80;;;;;;5047879;28;20036;-69
2022/05/12 08:08:55;;;;;;;5.93;2.20;;;20.80;50.50;;;;;;5048085;28;20428;-70
2022/05/12 08:11:20;;;;;;;3.70;2.15;;;20.70;50.50;;;;;;5044707;28;20037;-70
2022/05/12 08:13:47;;;;;;;5.82;2.60;;;20.80;50.50;;;;;;5047161;28;20101;-69
2022/05/12 08:16:17;;;;;;;6.70;2.17;;;20.70;49.90;;;;;;5042758;28;20020;-70
2022/05/12 08:18:45;;;;;;;6.70;2.33;;;20.50;50.00;;;;;;5050063;28;20105;-70
2022/05/12 08:21:12;;;;;;;4.60;2.10;;;20.60;49.80;;;;;;5050442;28;20025;-69
2022/05/12 08:23:37;;;;;;;7.13;2.65;;;20.50;49.40;;;;;;5044412;28;20403;-71
2022/05/12 08:26:03;;;;;;;5.53;2.17;;;20.40;49.00;;;;;;5036601;28;20063;-70
2022/05/12 08:28:29;;;;;;;4.93;2.20;;;20.10;48.90;;;;;;5040246;28;20543;-69
2022/05/12 08:30:55;;;;;;;2.63;1.70;;;20.00;49.10;;;;;;5049485;28;20028;-70
2022/05/12 08:33:22;;;;;;;5.80;2.15;;;20.00;49.40;;;;;;5041878;28;20472;-71
2022/05/12 08:35:48;;;;;;;2.95;1.65;;;20.10;49.40;;;;;;5041083;28;20365;-69
2022/05/12 08:38:15;;;;;;;3.95;1.88;;;20.20;49.30;;;;;;5030162;28;20064;-68
2022/05/12 08:40:49;;;;;;;5.10;1.77;;;20.30;48.90;;;;;;5043913;28;20029;-69
2022/05/12 08:43:17;;;;;;;3.63;1.60;;;20.50;48.90;;;;;;5048883;28;20467;-69
2022/05/12 08:45:45;;;;;;;4.25;2.22;;;20.70;48.50;;;;;;5049842;28;20106;-68
2022/05/12 08:48:13;;;;;;;4.10;1.77;;;20.80;47.90;;;;;;5050818;28;20017;-67
2022/05/12 08:50:40;;;;;;;2.90;1.50;;;20.70;47.60;;;;;;5040747;28;20030;-67
2022/05/12 08:53:13;;;;;;;3.85;1.70;;;20.80;47.70;;;;;;5041196;28;20021;-69
2022/05/12 08:55:49;;;;;;;2.95;1.52;;;20.90;47.20;;;;;;5054418;28;20068;-69
2022/05/12 08:58:35;;;;;;;4.43;1.60;;;20.90;46.40;;;;;;5038600;28;20037;-68
2022/05/12 09:01:20;;;;;;;4.70;2.03;;;20.80;46.50;;;;;;5047661;28;20123;-69
2022/05/12 09:04:04;;;;;;;4.68;1.90;;;20.70;45.60;;;;;;5043810;28;20029;-69
2022/05/12 09:06:40;;;;;;;5.03;1.80;;;20.70;45.80;;;;;;5046674;28;20460;-71
2022/05/12 09:09:18;;;;;;;3.28;1.55;;;20.70;45.40;;;;;;5047716;28;20086;-71
2022/05/12 09:11:54;;;;;;;3.15;1.50;;;20.80;45.70;;;;;;5048373;28;20036;-69
2022/05/12 09:14:56;;;;;;;3.33;1.83;;;20.80;45.70;;;;;;5043259;28;20041;-70
2022/05/12 09:17:25;;;;;;;3.15;1.45;;;20.90;45.30;;;;;;5040542;28;20032;-70
2022/05/12 09:19:51;;;;;;;2.75;1.63;;;20.90;45.60;;;;;;5045042;28;20071;-70
2022/05/12 09:22:27;;;;;;;4.18;1.50;;;21.00;45.50;;;;;;5047811;28;20056;-71
2022/05/12 09:24:53;;;;;;;3.92;1.60;;;21.00;45.10;;;;;;5047004;28;20025;-71
2022/05/12 09:27:28;;;;;;;4.28;1.85;;;21.10;45.30;;;;;;5041630;28;20510;-70
2022/05/12 09:29:54;;;;;;;6.00;1.92;;;21.10;44.70;;;;;;5047798;28;20029;-69
2022/05/12 09:32:31;;;;;;;2.97;1.60;;;21.10;44.30;;;;;;5037726;28;20030;-68
2022/05/12 09:35:20;;;;;;;3.78;1.50;;;21.20;44.30;;;;;;5029672;28;20048;-68
2022/05/12 09:37:47;;;;;;;3.70;1.60;;;21.50;44.20;;;;;;5040265;28;20025;-68
2022/05/12 09:40:22;;;;;;;3.33;1.60;;;21.40;43.60;;;;;;5040552;28;20033;-68
2022/05/12 09:42:53;;;;;;;2.22;1.40;;;21.50;43.40;;;;;;5050013;28;20025;-71
2022/05/12 09:45:24;;;;;;;3.22;1.23;;;21.60;43.20;;;;;;5036238;28;20100;-68
2022/05/12 09:47:50;;;;;;;2.42;1.33;;;21.80;42.80;;;;;;5032415;28;20033;-69
2022/05/12 09:50:23;;;;;;;3.05;1.40;;;21.80;41.90;;;;;;5034193;28;20068;-69
2022/05/12 09:52:55;;;;;;;2.90;1.45;;;21.80;41.50;;;;;;5045184;28;20080;-68
2022/05/12 09:55:27;;;;;;;3.95;1.50;;;21.80;41.20;;;;;;5050070;28;20094;-70
2022/05/12 09:58:02;;;;;;;2.80;1.55;;;21.70;41.10;;;;;;5050295;28;20033;-69
2022/05/12 10:00:33;;;;;;;2.83;1.52;;;21.80;41.20;;;;;;5035086;28;20053;-70
2022/05/12 10:09:13;;;;;;;3.78;1.20;;;21.30;40.50;;;;;;5032998;28;20630;-68
2022/05/12 10:11:51;;;;;;;1.75;1.00;;;21.20;40.80;;;;;;5041673;28;20029;-68
2022/05/12 10:14:22;;;;;;;2.65;1.30;;;21.30;41.20;;;;;;5039859;28;20036;-70
2022/05/12 10:16:50;;;;;;;1.48;1.10;;;21.60;41.20;;;;;;5041403;28;20426;-68
2022/05/12 10:19:22;;;;;;;4.10;1.13;;;21.70;41.10;;;;;;5040968;28;20030;-68
2022/05/12 10:22:07;;;;;;;2.15;1.00;;;21.80;40.70;;;;;;5037432;28;20021;-69
2022/05/12 10:24:44;;;;;;;2.10;1.00;;;22.00;40.40;;;;;;5052582;28;20048;-69
2022/05/12 10:27:20;;;;;;;2.80;1.13;;;22.10;39.80;;;;;;5047632;28;20028;-69
2022/05/12 10:30:19;;;;;;;2.38;1.20;;;22.00;38.40;;;;;;5048743;28;20025;-69
2022/05/12 10:33:17;;;;;;;4.15;1.40;;;22.00;39.00;;;;;;5048970;28;20399;-70
2022/05/12 10:36:04;;;;;;;3.10;1.27;;;22.00;38.90;;;;;;5047239;28;20029;-69
2022/05/12 10:38:56;;;;;;;2.67;1.20;;;22.10;38.70;;;;;;5049770;28;20123;-68
2022/05/12 10:41:29;;;;;;;1.40;0.80;;;22.20;38.90;;;;;;5048212;28;20090;-70
2022/05/12 10:44:25;;;;;;;1.73;1.15;;;22.30;38.80;;;;;;5048616;28;20513;-69
2022/05/12 10:47:06;;;;;;;2.10;1.10;;;22.30;38.70;;;;;;5051178;28;20131;-68
2022/05/12 10:49:58;;;;;;;2.58;1.05;;;22.20;38.80;;;;;;5048218;28;20083;-69
2022/05/12 10:52:31;;;;;;;3.33;1.13;;;22.10;39.20;;;;;;5047697;28;20036;-70
2022/05/12 10:55:11;;;;;;;2.65;1.10;;;22.10;39.20;;;;;;5049739;28;20020;-70
2022/05/12 10:57:55;;;;;;;1.83;1.10;;;22.20;39.30;;;;;;5050044;28;20108;-69
2022/05/12 11:00:44;;;;;;;1.70;1.00;;;22.30;39.00;;;;;;5048487;28;20024;-69
2022/05/12 11:03:34;;;;;;;2.30;1.00;;;22.50;38.70;;;;;;5045388;28;20513;-70
2022/05/12 11:06:03;;;;;;;1.52;0.95;;;22.50;38.40;;;;;;5051020;28;20060;-69
2022/05/12 11:08:36;;;;;;;3.22;1.00;;;22.50;38.20;;;;;;5033055;28;20040;-69
2022/05/12 11:11:10;;;;;;;1.40;0.82;;;22.40;37.40;;;;;;5040046;28;20032;-71
2022/05/12 11:14:12;;;;;;;2.75;0.80;;;22.30;38.00;;;;;;5045150;28;20431;-71
2022/05/12 11:16:43;;;;;;;;;;;22.40;38.10;;;;;;5048550;28;20021;-69
2022/05/12 11:19:21;;;;;;;3.00;1.03;;;22.40;37.80;;;;;;5049639;28;19917;-69
2022/05/12 11:22:20;;;;;;;2.75;1.10;;;22.40;37.80;;;;;;5048718;28;20056;-69
2022/05/12 11:24:58;;;;;;;3.05;1.15;;;22.40;37.80;;;;;;5048147;28;20074;-69
2022/05/12 11:27:33;;;;;;;3.33;0.95;;;22.50;37.90;;;;;;5049741;28;20067;-70
2022/05/12 11:30:29;;;;;;;2.25;1.00;;;22.70;38.10;;;;;;5055404;28;20029;-69
2022/05/12 11:33:05;;;;;;;1.85;0.90;;;22.70;37.60;;;;;;5048868;28;20110;-70
2022/05/12 11:35:40;;;;;;;1.95;0.70;;;22.70;37.80;;;;;;5045918;28;20025;-72
2022/05/12 11:38:10;;;;;;;2.17;1.00;;;22.90;37.60;;;;;;5043571;28;20494;-68
2022/05/12 11:40:44;;;;;;;1.08;0.77;;;22.90;36.60;;;;;;5051028;28;20458;-69
2022/05/12 11:46:23;;;;;;;1.83;0.88;;;22.90;36.30;;;;;;5059836;28;20040;-69
2022/05/12 11:49:24;;;;;;;1.98;0.85;;;22.90;36.50;;;;;;5057989;28;20092;-67
2022/05/12 11:52:12;;;;;;;1.83;0.80;;;22.90;35.80;;;;;;5049256;28;20041;-68
2022/05/12 11:54:48;;;;;;;1.30;0.55;;;22.90;35.60;;;;;;5043533;28;20396;-69
2022/05/12 11:57:31;;;;;;;1.98;0.93;;;23.00;35.70;;;;;;5049130;28;20017;-68
2022/05/12 11:59:59;;;;;;;2.75;1.05;;;23.10;35.30;;;;;;5061324;28;20458;-68
2022/05/12 12:02:28;;;;;;;1.58;0.70;;;23.20;35.80;;;;;;5053594;28;20025;-68
2022/05/12 12:04:58;;;;;;;1.98;0.80;;;23.30;35.30;;;;;;5067091;28;20024;-68
2022/05/12 12:07:32;;;;;;;2.97;1.10;;;23.40;35.50;;;;;;5056790;28;20231;-70
2022/05/12 12:10:22;;;;;;;4.47;1.30;;;23.40;35.00;;;;;;5059227;28;20033;-70
2022/05/12 12:12:57;;;;;;;1.10;0.70;;;23.40;33.80;;;;;;5066196;28;20035;-70
2022/05/12 12:15:27;;;;;;;1.38;0.80;;;23.40;34.40;;;;;;5056012;28;20020;-68
2022/05/12 12:17:54;;;;;;;2.47;0.73;;;23.50;34.00;;;;;;5052980;28;20379;-68
2022/05/12 12:20:46;;;;;;;2.13;0.70;;;23.60;34.00;;;;;;5056007;28;20041;-68
2022/05/12 12:23:26;;;;;;;;;;;23.80;33.90;;;;;;5040473;28;20016;-69
2022/05/12 12:26:12;;;;;;;2.45;1.00;;;23.90;33.40;;;;;;5050110;28;20007;-68
2022/05/12 12:29:04;;;;;;;2.25;0.80;;;23.80;32.10;;;;;;5038600;28;20013;-69
2022/05/12 12:31:43;;;;;;;2.13;0.68;;;23.60;31.80;;;;;;5041648;28;20503;-68
2022/05/12 12:34:09;;;;;;;2.47;1.10;;;23.80;31.90;;;;;;5034739;28;20112;-68
2022/05/12 12:36:34;;;;;;;2.42;0.93;;;23.90;31.60;;;;;;5037411;28;20049;-70
2022/05/12 12:39:00;;;;;;;3.50;1.08;;;23.80;31.90;;;;;;5043798;28;20033;-68
2022/05/12 12:41:34;;;;;;;4.00;1.10;;;23.80;32.00;;;;;;5047762;28;20025;-69
2022/05/12 12:44:18;;;;;;;2.58;1.05;;;23.80;32.30;;;;;;5049104;28;20098;-70
2022/05/12 12:46:59;;;;;;;1.65;0.70;;;23.70;32.50;;;;;;5048656;28;20021;-69
2022/05/12 12:49:42;;;;;;;2.45;0.93;;;23.90;32.70;;;;;;5044285;28;20040;-68
2022/05/12 12:52:10;;;;;;;1.27;0.80;;;24.00;32.20;;;;;;5047147;28;20048;-70
2022/05/12 12:57:23;;;;;;;2.08;0.90;;;24.00;32.00;;;;;;5048237;28;20947;-69
2022/05/12 13:00:07;;;;;;;4.70;1.25;;;24.00;32.00;;;;;;5047914;28;20083;-69
2022/05/12 13:02:41;;;;;;;1.70;1.00;;;23.90;31.90;;;;;;5048467;28;20526;-69
2022/05/12 13:05:18;;;;;;;1.60;0.80;;;23.90;32.20;;;;;;5049644;28;20025;-69
2022/05/12 13:07:57;;;;;;;1.40;0.70;;;24.00;32.50;;;;;;5046908;28;20021;-69
2022/05/12 13:10:24;;;;;;;1.63;0.73;;;24.40;32.30;;;;;;5039365;28;20067;-69
2022/05/12 13:13:04;;;;;;;1.63;0.80;;;24.60;31.90;;;;;;5035700;28;20052;-70
2022/05/12 13:15:32;;;;;;;1.65;0.70;;;24.60;31.40;;;;;;5037828;28;20029;-67
2022/05/12 13:18:00;;;;;;;1.95;0.70;;;24.60;31.10;;;;;;5048529;28;20016;-67
2022/05/12 13:20:32;;;;;;;1.30;0.80;;;24.80;31.50;;;;;;5047746;28;20062;-70
2022/05/12 13:23:06;;;;;;;1.20;0.70;;;24.70;31.10;;;;;;5045971;28;20028;-69
2022/05/12 13:25:35;;;;;;;2.45;0.95;;;24.80;30.80;;;;;;5045059;28;20026;-69